Accueil
METAR-TAF:

METAR-TAF

Aéroports :

Aérodrome de Touho

Touho, Nouvelle-Calédonie

latitude: 20-47-25S, longitude: 165-15-34E, altitude: 3 m

METAR: absent

Heure: 03:51 (16:51 UTC)

Prévision

Le bulletin a été fait il y a 23 heures et 51 minutes, à 17:00 UTC
Prévision valable du 20 à 18 UTC au 21 à 18 UTC
Vent 5 kt de sud
Visibilité 10 km ou plus
Nuages épars à une hauteur de 3000 ft
Nuages fragmentés à une hauteur de 6400 ft
Evoluant progressivement
du 20 à 22 UTC au 20 à 24 UTC
Vent 15 kt de est/sud-est
Temporairement
du 21 à 03 UTC au 21 à 12 UTC
Vent 18 kt de est/sud-est avec des rafales jusqu'à 28 kt
Visibilité: 3000 m
Nuages fragmentés à une hauteur de 1200 ft
Quelques nuages à une hauteur de 2200 ft, Cumulus congestus.
averses de pluie

TAF: NWWU 201700Z 2018/2118 17005KT 9999 SCT030 BKN064 BECMG 2022/2024 12015KT TEMPO 2103/2112 12018G28KT 3000 SHRA BKN012 FEW022TCU

Observations et prévisions météorologiques de plus de 4000 aéroports (messages METAR et TAF).

Les stations disponibles sont représentées par des disques jaunes et rouges sur la carte.

Passer la souris dessus pour voir le nom de la station.

Cliquer dessus pour voir les observations et prévisions météorologiques.

Pour changer de carte: cliquez sur les boutons verts avec une croix noire pour zoomer, sur le bouton vert avec un tiret pour effectuer un zoom arrière, ou sur les flèches vertes pour les cartes adjacentes.


METAR-TAF: